Frederick, Maryland
Current Conditions -  °F | °C
As of 2:40 AM on Monday 22 Dec 2014 (Local Time) from KFDK Reporting Station
Clear Clear  
Wind Chill: 25°   Ceiling: Unl
Heat Index: 25°   Visibility: 7mi
Dew Point: 21°   Wind: 0mph
Humidity: 86%   Direction: NA
Pressure: 30.35"   Gusts: NA
Location:  39.42°N, 77.41°W
Report Text: KFDK 220740Z AUTO 00000KT 7SM CLR M04/M06 A3035 RMK AO2
Loading
Personal Weather Stations






























Interactive Weather Map New forecast layout! Learn more

10-Day Weather Forecast

Advertisements
Track Severe Weather on mobile